CJY5 weather

Strathclair Airport
Strathclair, Manitoba, Canada

Public forecast

Using degrees Celsius for public forecast. Weather courtesy of forecast.io.

Closest aviation weather report (METAR) to Strathclair Airport

Closest report is Brandon Municipal Airport, 34.4 nm (63.7 km) SSE. Retrieved 2019/12/15 04:00 UTC (46 minutes ago):

CYBR 150400Z 31003KT 15SM SKC M32/M36 A2995 RMK SLP208

Closest aviation forecast (TAF) to Strathclair Airport

Closest forecast is Brandon Municipal Airport, 34.4 nm (63.7 km) SSE. Retrieved 2019-12-15 00:57 UTC (4 hours ago):

TAF TAF CYBR 142353Z 1500/1512 24005KT P6SM FEW090 FM150900 24005KT P6SM SCT012 TEMPO 1509/1512 4SM BR SCT006 BKN012 PROB30 1509/1512 2SM BR BKN004 RMK NXT FCST BY 150600Z